Flight Track Log - Related Links

Times and Time Zones

All times are in EDT time to prevent confusion due to time zone crossing. See the EJA574 flight status page for this flight to view local times or setup timezone preferences in your user account.

Time Position Orientation Groundspeed Altitude Reporting Facility
EDT Latitude Longitude Course Direction KTS MPH feet Rate Location/Type
Fri 10:50:13 AM 25.5275 -76.7469 287° West 217 250 6,000  Level Miami Center
Fri 10:51:15 AM 25.5444 -76.8250 284° West 250 288 8,900 2,516 Climbing Miami Center
Fri 10:52:17 AM 25.5847 -76.8967 302° West 271 312 11,200 2,081 Climbing Miami Center
Fri 10:53:19 AM 25.6425 -76.9803 307° West 307 353 13,200 1,887 Climbing Miami Center
Fri 10:54:21 AM 25.6964 -77.0636 306° West 328 377 15,100 1,790 Climbing Miami Center
Fri 10:55:00 AM 25.6130 -77.2252 287° West  Level FlightAware
Fri 10:55:23 AM 25.7419 -77.1586 298° West 344 396 16,900  Level Miami Center
Fri 10:56:25 AM 25.7931 -77.2650 298° West 356 410 18,600 1,645 Climbing Miami Center
Fri 10:57:27 AM 25.8417 -77.3625 299° West 357 411 20,300 1,645 Climbing Miami Center
Fri 10:58:29 AM 25.8903 -77.4619 299° West 362 417 22,000 1,632 Climbing Miami Center
Fri 10:59:32 AM 25.9389 -77.5619 298° West 364 419 23,700 1,584 Climbing Miami Center
Fri 11:00:34 AM 25.9875 -77.6633 298° West 367 422 25,300 1,452 Climbing Miami Center
Fri 11:01:36 AM 26.0356 -77.7650 298° West 371 427 26,700 1,452 Climbing Miami Center
Fri 11:02:38 AM 26.0964 -77.8886 299° West 375 432 28,300 1,403 Climbing Miami Center
Fri 11:03:40 AM 26.1458 -77.9953 297° West 383 441 29,600 1,210 Climbing Miami Center
Fri 11:04:42 AM 26.1975 -78.1011 299° West 386 444 30,800 1,104 Climbing Miami Center
Fri 11:05:45 AM 26.2492 -78.2086 298° West 389 448 31,900 1,056 Climbing Miami Center
Fri 11:06:47 AM 26.3011 -78.3164 298° West 390 449 33,000 1,113 Climbing Miami Center
Fri 11:07:49 AM 26.3525 -78.4261 298° West 397 457 34,200 1,113 Climbing Miami Center
Fri 11:08:51 AM 26.4036 -78.5353 298° West 396 456 35,300 871 Climbing Miami Center
Fri 11:09:53 AM 26.4658 -78.6703 297° West 399 459 36,000 484 Climbing Miami Center
Fri 11:10:55 AM 26.5236 -78.7936 298° West 438 504 36,300 864 Climbing Miami Center
Fri 11:11:58 AM 26.5792 -78.9097 298° West 420 483 37,800 1,296 Climbing Miami Center
Fri 11:13:00 AM 26.6319 -79.0192 298° West 404 465 39,000 1,016 Climbing Miami Center
Fri 11:14:02 AM 26.6836 -79.1300 298° West 402 463 39,900 484 Climbing Miami Center
Fri 11:15:04 AM 26.7364 -79.2428 298° West 408 470 40,000 48 Climbing Miami Center
Fri 11:16:07 AM 26.7956 -79.3700 298° West 423 487 40,000  Level Miami Center
Fri 11:17:09 AM 26.8522 -79.4931 297° West 419 482 40,000  Level Miami Center
Fri 11:18:11 AM 26.9086 -79.6144 298° West 419 482 40,000  Level Miami Center
Fri 11:19:13 AM 26.9658 -79.7372 298° West 425 489 40,000  Level Miami Center
Fri 11:20:16 AM 27.0231 -79.8622 297° West 426 490 40,000  Level Miami Center
Fri 11:21:18 AM 27.0733 -79.9725 297° West 418 481 40,000  Level Miami Center
Fri 11:22:20 AM 27.1261 -80.0878 297° West 417 480 40,000  Level Miami Center
Fri 11:23:22 AM 27.1794 -80.2042 297° West 417 480 40,000  Level Miami Center
Fri 11:24:24 AM 27.2317 -80.3208 297° West 417 480 40,000  Level Miami Center
Fri 11:25:27 AM 27.2956 -80.4603 297° West 417 480 40,000  Level Miami Center
Fri 11:26:29 AM 27.3544 -80.5706 301° West 412 474 40,000  Level Miami Center
Fri 11:27:31 AM 27.4344 -80.6608 315° West 408 470 40,000  Level Miami Center
Fri 11:28:33 AM 27.5150 -80.7553 314° West 416 479 40,000  Level Miami Center
Fri 11:29:35 AM 27.6011 -80.8503 316° Northwest 416 479 40,000  Level Miami Center
Fri 11:30:38 AM 27.6819 -80.9428 315° West 416 479 40,000  Level Miami Center
Fri 11:31:40 AM 27.7603 -81.0328 315° West 408 470 40,000  Level Miami Center
Fri 11:32:42 AM 27.8544 -81.1425 314° West 401 461 40,000  Level Miami Center
Fri 11:33:44 AM 27.9372 -81.2369 315° West 402 463 40,000  Level Miami Center
Fri 11:34:46 AM 28.0189 -81.3322 314° West 402 463 40,000  Level Miami Center
Fri 11:35:48 AM 28.0897 -81.4136 315° West 402 463 40,000  Level Miami Center
Fri 11:36:50 AM 28.1706 -81.5064 315° West 402 463 40,000  Level Miami Center
Fri 11:37:52 AM 28.2603 -81.6106 314° West 398 458 40,000  Level Jacksonville Center
Fri 11:38:52 AM 28.3386 -81.7017 314° West 398 458 40,000  Level Jacksonville Center
Fri 11:39:52 AM 28.4164 -81.7928 314° West 398 458 40,000  Level Jacksonville Center
Fri 11:40:52 AM 28.4881 -81.8769 314° West 407 468 40,000  Level Jacksonville Center
Fri 11:41:52 AM 28.5722 -81.9611 319° Northwest 407 468 40,000  Level Jacksonville Center
Fri 11:42:52 AM 28.6689 -82.0431 323° Northwest 401 461 40,000  Level Jacksonville Center
Fri 11:43:52 AM 28.7592 -82.1253 321° Northwest 401 461 40,000  Level Jacksonville Center
Fri 11:44:52 AM 28.8450 -82.2028 322° Northwest 401 461 40,000  Level Jacksonville Center
Fri 11:45:52 AM 28.9311 -82.2853 320° Northwest 401 461 40,000  Level Jacksonville Center
Fri 11:46:52 AM 29.0086 -82.3514 323° Northwest 392 451 40,000  Level Jacksonville Center
Fri 11:47:52 AM 29.0967 -82.4317 321° Northwest 403 464 40,000  Level Jacksonville Center
Fri 11:48:52 AM 29.1844 -82.5119 321° Northwest 403 464 40,000  Level Jacksonville Center
Fri 11:49:52 AM 29.2744 -82.5925 322° Northwest 403 464 40,000  Level Jacksonville Center
Fri 11:50:52 AM 29.3603 -82.6711 321° Northwest 398 458 40,000  Level Jacksonville Center
Fri 11:51:52 AM 29.4458 -82.7494 321° Northwest 398 458 40,000  Level Jacksonville Center
Fri 11:52:52 AM 29.5483 -82.8472 320° Northwest 423 487 40,000  Level Jacksonville Center
Fri 11:53:52 AM 29.6403 -82.9308 322° Northwest 425 489 40,000  Level Jacksonville Center
Fri 11:54:52 AM 29.7047 -83.0383 305° West 425 489 40,000  Level Jacksonville Center
Fri 11:55:52 AM 29.7569 -83.1319 303° West 410 472 40,000  Level Jacksonville Center
Fri 11:56:52 AM 29.8150 -83.2397 302° West 410 472 40,000  Level Jacksonville Center
Fri 11:57:52 AM 29.8836 -83.3669 302° West 410 472 40,000  Level Jacksonville Center
Fri 11:58:52 AM 29.9436 -83.4728 303° West 410 472 40,000  Level Jacksonville Center
Fri 11:59:52 AM 30.0058 -83.5833 303° West 410 472 40,000  Level Jacksonville Center
Fri 12:00:52 PM 30.0656 -83.6894 303° West 410 472 40,000  Level Jacksonville Center
Fri 12:01:52 PM 30.1444 -83.7836 314° West 410 472 40,000  Level Jacksonville Center
Fri 12:02:52 PM 30.2358 -83.8592 324° Northwest 400 460 40,000  Level Jacksonville Center
Fri 12:03:52 PM 30.3250 -83.9322 325° Northwest 400 460 40,000  Level Jacksonville Center
Fri 12:04:52 PM 30.4161 -84.0103 324° Northwest 400 460 40,000  Level Jacksonville Center
Fri 12:05:52 PM 30.5094 -84.0836 326° Northwest 400 460 40,000  Level Jacksonville Center
Fri 12:06:52 PM 30.5922 -84.1572 323° Northwest 400 460 40,000  Level Jacksonville Center
Fri 12:07:52 PM 30.6833 -84.2356 324° Northwest 400 460 40,000 -50 Level Jacksonville Center
Fri 12:08:52 PM 30.7722 -84.3094 324° Northwest 400 460 39,900 -800 Descending Jacksonville Center
Fri 12:09:52 PM 30.8653 -84.3883 324° Northwest 400 460 38,400 -1,600 Descending Jacksonville Center
Fri 12:10:52 PM 30.9522 -84.4622 324° Northwest 400 460 36,700 -1,900 Descending Jacksonville Center
Fri 12:11:52 PM 31.0369 -84.5317 325° Northwest 395 455 34,600 -2,050 Descending Jacksonville Center
Fri 12:12:52 PM 31.1214 -84.6033 324° Northwest 390 449 32,600 -2,000 Descending Jacksonville Center
Fri 12:13:52 PM 31.2083 -84.6756 325° Northwest 384 442 30,600 -1,366 Descending Jacksonville Center
Fri 12:16:14 PM 31.4183 -84.8589 323° Northwest 415 478 28,000 -772 Descending Atlanta Center
Fri 12:17:14 PM 31.5097 -84.9378 324° Northwest 421 484 28,000  Level Atlanta Center
Fri 12:18:14 PM 31.6008 -85.0167 324° Northwest 421 484 28,000 -350 Level Atlanta Center
Fri 12:19:14 PM 31.6900 -85.0956 323° Northwest 411 473 27,300 -1,250 Descending Atlanta Center
Fri 12:20:14 PM 31.7978 -85.1825 326° Northwest 411 473 25,500 -1,650 Descending Atlanta Center
Fri 12:21:14 PM 31.8908 -85.2619 324° Northwest 416 479 24,000 -750 Descending Atlanta Center
Fri 12:22:14 PM 31.9839 -85.3439 323° Northwest 416 479 24,000 -400 Level Atlanta Center
Fri 12:23:14 PM 32.0750 -85.4236 323° Northwest 416 479 23,200 -1,000 Descending Atlanta Center
Fri 12:24:14 PM 32.1678 -85.5036 324° Northwest 416 479 22,000 -600 Descending Atlanta Center
Fri 12:25:14 PM 32.2589 -85.5836 323° Northwest 416 479 22,000  Level Atlanta Center
Fri 12:26:14 PM 32.3517 -85.6642 324° Northwest 416 479 22,000  Level Atlanta Center
Fri 12:27:14 PM 32.4403 -85.7419 323° Northwest 416 479 22,000  Level Atlanta Center
Fri 12:28:14 PM 32.5208 -85.8125 324° Northwest 416 479 22,000  Level Atlanta Center
Fri 12:29:14 PM 32.6094 -85.8931 323° Northwest 411 473 22,000  Level Atlanta Center
Fri 12:30:14 PM 32.6958 -85.9689 324° Northwest 405 466 22,000 -600 Level Atlanta Center
Fri 12:31:14 PM 32.7864 -86.0500 323° Northwest 405 466 20,800 -1,700 Descending Atlanta Center
Fri 12:32:14 PM 32.8728 -86.1286 323° Northwest 400 460 18,600 -2,250 Descending Atlanta Center
Fri 12:33:14 PM 32.9569 -86.2025 324° Northwest 395 455 16,300 -2,452 Descending Atlanta Center
Fri 12:33:47 PM 33.0103 -86.2583 319° Northwest 375 432 14,800 -2,200 Descending Atlanta Center
Fri 12:34:14 PM 33.0392 -86.2764 332° Northwest 383 441 14,100 -2,118 Descending Atlanta Center
Fri 12:35:12 PM 33.1211 -86.3578 320° Northwest 365 420 11,800 -1,563 Descending Atlanta Center
Fri 12:36:13 PM 33.2014 -86.4269 324° Northwest 356 410 11,000 -1,200 Descending Atlanta Center
Fri 12:37:07 PM 33.2497 -86.5053 306° West 305 351 9,500 -1,835 Descending Atlanta Center
Fri 12:38:14 PM 33.3047 -86.5839 310° West 295 339 7,300 -2,015 Descending Atlanta Center
Fri 12:39:21 PM 33.3464 -86.6772 298° West 267 307 5,000 -2,000 Descending Atlanta Center
Fri 12:40:14 PM 33.3764 -86.7353 302° West 270 311 3,300 -1,221 Descending Atlanta Center
Fri 12:41:14 PM 33.4328 -86.7444 352° North 196 226 2,700 -500 Descending Atlanta Center
Fri 12:42:14 PM 33.4739 -86.7633 339° North 190 219 2,300 -585 Descending Atlanta Center
Fri 12:43:17 PM 33.5139 -86.7494 16° North 125 144 1,500 -762 Descending Atlanta Center
Fri 12:45:00 PM 33.5500 -86.7500 309° West  Level FlightAware
Fri 12:52:00 PM 33.5639 -86.7523 309° West  Level Estimated

Login

Don't have an account? Register now (free) for customized features, flight alerts, and more!